Time;durP1;ratioP1;P1;durP2;ratioP2;P2;SDS_P1;SDS_P2;PMS_P1;PMS_P2;Temp;Humidity;BMP_temperature;BMP_pressure;BME280_temperature;BME280_humidity;BME280_pressure;Samples;Min_cycle;Max_cycle;Signal;HPM_P1;HPM_P2
2020/12/14 00:01:52;;;;;;;;;;;;;;;22.72;25.64;97193.38;5081792;28;578;-75
2020/12/14 00:04:24;;;;;;;;;;;;;;;22.71;25.85;97191.78;5065324;28;640;-74
2020/12/14 00:06:56;;;;;;;;;;;;;;;21.87;26.76;97194.13;5081865;28;580;-75
2020/12/14 00:09:28;;;;;;;;;;;;;;;21.68;27.28;97199.69;5081019;28;1980;-75
2020/12/14 00:11:53;;;;;;;;;;;;;;;21.74;27.16;97209.16;5080862;28;868;-75
2020/12/14 00:14:25;;;;;;;;;;;;;;;21.92;27.22;97213.34;5081357;28;940;-75
2020/12/14 00:16:57;;;;;;;;;;;;;;;22.30;26.46;97213.78;5081429;28;693;-75
2020/12/14 00:19:29;;;;;;;;;;;;;;;22.67;25.73;97210.22;5081366;28;614;-75
2020/12/14 00:22:01;;;;;;;;;;;;;;;22.76;25.65;97213.84;5081371;28;661;-75
2020/12/14 00:24:33;;;;;;;;;;;;;;;22.59;26.25;97209.75;5080880;28;1046;-75
2020/12/14 00:27:05;;;;;;;;;;;;;;;22.42;26.29;97211.28;5080955;28;929;-75
2020/12/14 00:29:37;;;;;;;;;;;;;;;21.96;26.67;97225.28;5080877;28;1906;-75
2020/12/14 00:32:09;;;;;;;;;;;;;;;21.74;27.27;97226.16;5080975;28;641;-75
2020/12/14 00:34:41;;;;;;;;;;;;;;;21.93;27.00;97221.38;5080915;28;645;-75
2020/12/14 00:37:13;;;;;;;;;;;;;;;22.24;26.61;97223.38;5081063;28;729;-75
2020/12/14 00:39:52;;;;;;;;;;;;;;;22.63;26.07;97227.38;5080324;28;1045;-74
2020/12/14 00:42:24;;;;;;;;;;;;;;;22.73;25.94;97226.13;5080553;28;797;-73
2020/12/14 00:44:56;;;;;;;;;;;;;;;21.88;26.63;97227.63;5080821;28;634;-75
2020/12/14 00:47:21;;;;;;;;;;;;;;;21.67;26.86;97231.31;5080722;28;614;-75
2020/12/14 00:49:53;;;;;;;;;;;;;;;21.58;27.49;97229.22;5080606;28;709;-74
2020/12/14 00:52:25;;;;;;;;;;;;;;;21.74;27.42;97236.69;5081161;28;713;-74
2020/12/14 00:54:57;;;;;;;;;;;;;;;22.31;26.59;97229.53;5080286;28;1003;-74
2020/12/14 00:57:29;;;;;;;;;;;;;;;22.52;26.20;97238.41;5080269;28;812;-75
2020/12/14 01:00:01;;;;;;;;;;;;;;;22.63;25.93;97231.00;5080606;28;738;-75
2020/12/14 01:02:33;;;;;;;;;;;;;;;22.84;25.54;97228.50;5080607;28;709;-75
2020/12/14 01:05:05;;;;;;;;;;;;;;;22.13;26.71;97235.16;5080543;28;729;-75
2020/12/14 01:07:37;;;;;;;;;;;;;;;21.59;27.30;97227.97;5063143;28;1977;-75
2020/12/14 01:10:09;;;;;;;;;;;;;;;21.59;27.15;97230.78;5080089;28;850;-75
2020/12/14 01:12:41;;;;;;;;;;;;;;;21.89;27.43;97231.25;5079974;28;895;-75
2020/12/14 01:15:13;;;;;;;;;;;;;;;22.17;26.98;97232.94;5080228;28;999;-74
2020/12/14 01:17:45;;;;;;;;;;;;;;;22.48;26.12;97237.75;5080316;28;633;-74
2020/12/14 01:20:17;;;;;;;;;;;;;;;22.63;26.07;97244.41;5080374;28;710;-75
2020/12/14 01:22:43;;;;;;;;;;;;;;;22.80;25.91;97242.84;5079763;28;663;-75
2020/12/14 01:25:15;;;;;;;;;;;;;;;22.53;25.96;97239.97;5079551;28;997;-75
2020/12/14 01:27:47;;;;;;;;;;;;;;;21.87;27.21;97240.22;5079734;28;1981;-75
2020/12/14 01:30:19;;;;;;;;;;;;;;;21.66;27.55;97235.38;5080256;28;710;-74
2020/12/14 01:33:05;;;;;;;;;;;;;;;21.71;27.89;97237.59;5080345;28;891;-75
2020/12/14 01:35:44;;;;;;;;;;;;;;;22.01;27.29;97233.19;5080043;28;670;-74
2020/12/14 01:38:16;;;;;;;;;;;;;;;22.58;26.38;97230.84;5079959;28;717;-74
2020/12/14 01:40:55;;;;;;;;;;;;;;;22.75;26.24;97220.78;5079414;28;953;-75
2020/12/14 01:43:27;;;;;;;;;;;;;;;22.77;25.86;97215.44;5079716;28;867;-75
2020/12/14 01:45:59;;;;;;;;;;;;;;;22.09;26.80;97214.66;5080029;28;666;-75
2020/12/14 01:48:31;;;;;;;;;;;;;;;21.90;27.35;97225.13;5079882;28;1963;-75
2020/12/14 01:51:03;;;;;;;;;;;;;;;21.62;27.70;97223.44;5079967;28;621;-75
2020/12/14 01:53:35;;;;;;;;;;;;;;;22.13;26.96;97223.81;5079847;28;656;-75
2020/12/14 01:56:07;;;;;;;;;;;;;;;22.44;26.63;97220.13;5063465;28;1068;-75
2020/12/14 01:58:39;;;;;;;;;;;;;;;22.84;25.83;97214.31;5079695;28;893;-74
2020/12/14 02:01:11;;;;;;;;;;;;;;;22.59;26.29;97209.75;5079999;28;693;-75
2020/12/14 02:03:36;;;;;;;;;;;;;;;22.53;26.11;97215.22;5079769;28;633;-75
2020/12/14 02:06:08;;;;;;;;;;;;;;;21.51;28.01;97218.19;5080168;28;650;-75
2020/12/14 02:08:40;;;;;;;;;;;;;;;21.64;27.76;97210.38;5079987;28;1984;-75
2020/12/14 02:11:12;;;;;;;;;;;;;;;21.71;27.88;97210.09;5079386;28;813;-75
2020/12/14 02:13:44;;;;;;;;;;;;;;;21.97;27.57;97209.91;5079526;28;871;-74
2020/12/14 02:16:16;;;;;;;;;;;;;;;22.49;26.60;97199.66;5079827;28;662;-74
2020/12/14 02:18:48;;;;;;;;;;;;;;;22.57;26.44;97206.59;5079729;28;611;-74
2020/12/14 02:25:11;;;;;;;;;;;;;;;22.62;26.30;97208.81;5079479;28;619;-74
2020/12/14 02:27:44;;;;;;;;;;;;;;;21.96;27.19;97213.97;5079247;28;1967;-75
2020/12/14 02:30:16;;;;;;;;;;;;;;;21.51;28.22;97218.19;5079307;28;846;-74
2020/12/14 02:32:55;;;;;;;;;;;;;;;21.57;28.22;97213.50;5079610;28;606;-74
2020/12/14 02:35:27;;;;;;;;;;;;;;;22.03;27.57;97220.13;5081579;28;634;-74
2020/12/14 02:37:59;;;;;;;;;;;;;;;22.46;26.72;97228.94;5083196;28;846;-74
2020/12/14 02:40:24;;;;;;;;;;;;;;;22.59;26.55;97221.88;5083004;28;1106;-75
2020/12/14 02:42:50;;;;;;;;;;;;;;;22.84;25.93;97214.31;5082807;28;845;-74
2020/12/14 02:45:15;;;;;;;;;;;;;;;22.99;25.70;97215.28;5082890;28;1031;-74
2020/12/14 02:47:41;;;;;;;;;;;;;;;21.57;27.98;97205.00;5082843;28;1906;-74
2020/12/14 02:50:06;;;;;;;;;;;;;;;21.77;27.66;97210.28;5082896;28;657;-74
2020/12/14 02:52:32;;;;;;;;;;;;;;;21.64;27.76;97221.69;5083056;28;602;-74
2020/12/14 02:54:57;;;;;;;;;;;;;;;22.05;27.56;97211.16;5082869;28;648;-74
2020/12/14 02:57:22;;;;;;;;;;;;;;;22.44;26.92;97208.78;5082541;28;1072;-74
2020/12/14 02:59:48;;;;;;;;;;;;;;;22.67;26.36;97215.91;5082557;28;859;-75
2020/12/14 03:02:13;;;;;;;;;;;;;;;22.56;26.92;97210.69;5082629;28;1068;-75
2020/12/14 03:04:39;;;;;;;;;;;;;;;22.57;26.58;97200.91;5082780;28;626;-74
2020/12/14 03:07:05;;;;;;;;;;;;;;;22.62;26.68;97206.75;5082855;28;694;-75
2020/12/14 03:09:30;;;;;;;;;;;;;;;21.92;27.57;97208.47;5082579;28;1906;-74
2020/12/14 03:12:00;;;;;;;;;;;;;;;21.39;28.26;97216.19;5082661;28;1003;-75
2020/12/14 03:14:26;;;;;;;;;;;;;;;21.46;28.38;97215.94;5082357;28;853;-75
2020/12/14 03:16:51;;;;;;;;;;;;;;;22.17;27.38;97224.44;5065189;28;873;-75
2020/12/14 03:19:17;;;;;;;;;;;;;;;22.55;26.60;97214.78;5082412;28;642;-73
2020/12/14 03:21:42;;;;;;;;;;;;;;;22.66;26.73;97231.34;5082608;28;631;-74
2020/12/14 03:24:08;;;;;;;;;;;;;;;22.74;26.38;97221.25;5082286;28;742;-75
2020/12/14 03:26:33;;;;;;;;;;;;;;;22.85;26.25;97225.22;5082411;28;953;-75
2020/12/14 03:28:59;;;;;;;;;;;;;;;22.83;26.39;97233.38;5082101;28;1902;-75
2020/12/14 03:31:24;;;;;;;;;;;;;;;22.84;26.30;97232.13;5082112;28;858;-75
2020/12/14 03:33:50;;;;;;;;;;;;;;;22.47;26.83;97230.50;5082377;28;666;-75
2020/12/14 03:36:15;;;;;;;;;;;;;;;21.67;28.07;97234.94;5082212;28;603;-75
2020/12/14 03:38:41;;;;;;;;;;;;;;;21.77;27.80;97233.72;5082095;28;749;-74
2020/12/14 03:41:06;;;;;;;;;;;;;;;21.78;28.09;97235.28;5081913;28;864;-75
2020/12/14 03:43:32;;;;;;;;;;;;;;;21.64;27.85;97244.34;5081826;28;864;-75
2020/12/14 03:45:57;;;;;;;;;;;;;;;21.56;28.28;97248.72;5081512;28;825;-74
2020/12/14 03:48:23;;;;;;;;;;;;;;;21.42;28.43;97243.59;5081503;28;1901;-75
2020/12/14 03:50:48;;;;;;;;;;;;;;;21.82;28.05;97243.66;5064717;28;666;-75
2020/12/14 03:53:14;;;;;;;;;;;;;;;22.27;27.26;97243.06;5081939;28;650;-74
2020/12/14 03:55:42;;;;;;;;;;;;;;;22.45;26.95;97238.72;5081670;28;1067;-75
2020/12/14 03:58:08;;;;;;;;;;;;;;;22.43;27.02;97249.72;5081465;28;828;-75
2020/12/14 04:00:34;;;;;;;;;;;;;;;22.67;26.46;97250.72;5081775;28;1036;-75
2020/12/14 04:03:01;;;;;;;;;;;;;;;22.66;26.52;97249.13;5081853;28;694;-75
2020/12/14 04:05:27;;;;;;;;;;;;;;;22.29;26.89;97249.06;5064402;28;710;-75
2020/12/14 04:07:52;;;;;;;;;;;;;;;21.78;27.65;97243.78;5081567;28;1976;-75
2020/12/14 04:10:18;;;;;;;;;;;;;;;21.63;28.01;97237.09;5081090;28;970;-75
2020/12/14 04:12:43;;;;;;;;;;;;;;;21.67;28.08;97243.44;5081290;28;854;-75
2020/12/14 04:15:09;;;;;;;;;;;;;;;21.70;28.23;97242.47;5064148;28;941;-75
2020/12/14 04:17:34;;;;;;;;;;;;;;;22.24;27.26;97244.00;5081359;28;639;-75
2020/12/14 04:20:00;;;;;;;;;;;;;;;22.29;27.17;97243.38;5081331;28;741;-75
2020/12/14 04:22:25;;;;;;;;;;;;;;;22.79;26.26;97246.94;5081350;28;734;-75
2020/12/14 04:24:50;;;;;;;;;;;;;;;22.79;26.24;97252.59;5080825;28;954;-75
2020/12/14 04:27:16;;;;;;;;;;;;;;;22.43;26.68;97258.22;5080813;28;905;-75
2020/12/14 04:29:41;;;;;;;;;;;;;;;21.72;27.96;97262.66;5081059;28;1975;-75
2020/12/14 04:32:07;;;;;;;;;;;;;;;21.68;28.03;97256.31;5063668;28;778;-75
2020/12/14 04:34:32;;;;;;;;;;;;;;;21.60;28.06;97257.84;5080998;28;625;-75
2020/12/14 04:36:58;;;;;;;;;;;;;;;21.36;28.34;97262.44;5081103;28;709;-75
2020/12/14 04:39:23;;;;;;;;;;;;;;;21.74;28.13;97268.63;5080756;28;1112;-75
2020/12/14 04:41:49;;;;;;;;;;;;;;;22.39;27.15;97257.59;5080669;28;980;-75
2020/12/14 04:44:14;;;;;;;;;;;;;;;22.56;26.68;97265.34;5063576;28;1344;-75
2020/12/14 04:46:39;;;;;;;;;;;;;;;22.75;26.19;97266.16;5081041;28;618;-75
2020/12/14 04:49:05;;;;;;;;;;;;;;;22.87;26.36;97273.75;5063613;28;1918;-75
2020/12/14 04:51:31;;;;;;;;;;;;;;;22.80;26.45;97279.72;5080478;28;654;-75
2020/12/14 04:53:57;;;;;;;;;;;;;;;21.84;27.53;97272.28;5080719;28;678;-75
2020/12/14 04:56:25;;;;;;;;;;;;;;;21.58;28.26;97280.97;5080571;28;657;-75
2020/12/14 04:58:51;;;;;;;;;;;;;;;21.52;28.15;97287.69;5080196;28;965;-75
2020/12/14 05:01:18;;;;;;;;;;;;;;;21.69;28.22;97289.03;5063127;28;904;-75
2020/12/14 05:03:44;;;;;;;;;;;;;;;22.21;27.40;97292.31;5080679;28;823;-75
2020/12/14 05:06:09;;;;;;;;;;;;;;;22.56;26.53;97296.53;5080484;28;666;-75
2020/12/14 05:08:35;;;;;;;;;;;;;;;22.80;26.43;97298.78;5080439;28;2036;-75
2020/12/14 05:11:00;;;;;;;;;;;;;;;22.75;26.19;97308.72;5080392;28;670;-75
2020/12/14 05:13:26;;;;;;;;;;;;;;;22.12;27.03;97312.88;5080305;28;1069;-75
2020/12/14 05:15:54;;;;;;;;;;;;;;;21.75;27.79;97306.22;5080173;28;888;-75
2020/12/14 05:18:22;;;;;;;;;;;;;;;21.63;27.88;97304.25;5080211;28;858;-75
2020/12/14 05:21:04;;;;;;;;;;;;;;;21.99;27.56;97315.00;5063299;28;707;-75
2020/12/14 05:23:29;;;;;;;;;;;;;;;22.50;26.77;97317.47;5080147;28;606;-75
2020/12/14 05:26:04;;;;;;;;;;;;;;;22.54;26.63;97326.63;5062892;28;673;-75
2020/12/14 05:28:30;;;;;;;;;;;;;;;22.75;26.40;97336.28;5079784;28;1905;-75
2020/12/14 05:30:55;;;;;;;;;;;;;;;22.64;26.35;97336.72;5079954;28;936;-75
2020/12/14 05:33:25;;;;;;;;;;;;;;;21.58;27.78;97326.25;5080076;28;868;-75
2020/12/14 05:35:50;;;;;;;;;;;;;;;21.67;27.84;97336.84;5064140;28;1462;-75
2020/12/14 05:38:22;;;;;;;;;;;;;;;21.87;27.69;97339.34;5082042;28;1519;-75
2020/12/14 05:40:52;;;;;;;;;;;;;;;22.20;27.01;97336.88;5092631;28;1511;-75
2020/12/14 05:43:23;;;;;;;;;;;;;;;22.31;27.05;97330.78;5082662;28;936;-74
2020/12/14 05:45:50;;;;;;;;;;;;;;;22.43;26.78;97337.59;5084921;28;1456;-75
2020/12/14 05:48:29;;;;;;;;;;;;;;;22.60;26.36;97336.09;5062675;28;1983;-75
2020/12/14 05:50:56;;;;;;;;;;;;;;;22.71;26.33;97336.44;5062894;28;915;-69
2020/12/14 05:53:21;;;;;;;;;;;;;;;22.25;26.62;97335.47;5080226;28;693;-75
2020/12/14 05:55:47;;;;;;;;;;;;;;;21.77;27.50;97332.84;5090761;28;1500;-75
2020/12/14 05:58:15;;;;;;;;;;;;;;;21.71;27.35;97334.69;5093781;28;1499;-75
2020/12/14 06:00:46;;;;;;;;;;;;;;;21.81;27.63;97341.19;5079966;28;1023;-75
2020/12/14 06:03:12;;;;;;;;;;;;;;;22.29;26.82;97342.59;5079935;28;653;-75
2020/12/14 06:05:38;;;;;;;;;;;;;;;22.75;26.13;97342.75;5069158;28;1524;-75
2020/12/14 06:08:07;;;;;;;;;;;;;;;22.71;26.05;97359.13;5100378;28;1977;-75
2020/12/14 06:10:33;;;;;;;;;;;;;;;22.55;26.35;97362.22;5084949;28;870;-74
2020/12/14 06:13:05;;;;;;;;;;;;;;;22.55;26.36;97367.88;5103939;28;902;-75
2020/12/14 06:15:30;;;;;;;;;;;;;;;21.73;27.44;97366.16;5071197;28;1441;-75
2020/12/14 06:17:56;;;;;;;;;;;;;;;21.66;27.37;97365.59;5066342;28;1591;-76
2020/12/14 06:20:22;;;;;;;;;;;;;;;21.78;27.73;97364.78;5095451;28;1463;-75
2020/12/14 06:22:51;;;;;;;;;;;;;;;22.39;26.84;97368.13;5066226;28;801;-74
2020/12/14 06:25:17;;;;;;;;;;;;;;;22.50;26.26;97363.63;5079281;28;1476;-74
2020/12/14 06:27:42;;;;;;;;;;;;;;;22.67;26.07;97369.81;5071228;28;1906;-75
2020/12/14 06:30:40;;;;;;;;;;;;;;;22.60;26.09;97381.44;5094739;28;1598;-75
2020/12/14 06:33:11;;;;;;;;;;;;;;;22.00;27.05;97367.56;5059536;28;1300;-75
2020/12/14 06:35:44;;;;;;;;;;;;;;;21.66;27.27;97377.75;5094278;28;1544;-75
2020/12/14 06:38:09;;;;;;;;;;;;;;;21.70;27.75;97377.59;5100441;28;1571;-75
2020/12/14 06:40:53;;;;;;;;;;;;;;;22.02;27.10;97365.06;5099872;28;1574;-75
2020/12/14 06:43:29;;;;;;;;;;;;;;;22.27;26.69;97364.13;5103000;28;937;-74
2020/12/14 06:45:55;;;;;;;;;;;;;;;22.44;26.33;97367.53;5085968;28;661;-75
2020/12/14 06:48:34;;;;;;;;;;;;;;;22.56;26.17;97372.28;5103194;28;1910;-75
2020/12/14 06:50:59;;;;;;;;;;;;;;;22.43;26.56;97371.59;5103296;28;645;-75
2020/12/14 06:53:44;;;;;;;;;;;;;;;21.66;27.14;97376.94;5094378;28;1609;-75
2020/12/14 06:56:10;;;;;;;;;;;;;;;21.52;27.67;97375.44;5082706;28;858;-75
2020/12/14 06:58:36;;;;;;;;;;;;;;;21.62;27.77;97371.41;5083176;28;893;-74
2020/12/14 07:01:02;;;;;;;;;;;;;;;22.07;27.39;97372.97;5065387;28;871;-75
2020/12/14 07:03:29;;;;;;;;;;;;;;;22.29;26.77;97373.75;5082801;28;749;-75
2020/12/14 07:05:58;;;;;;;;;;;;;;;22.50;26.51;97383.47;5082970;28;602;-75
2020/12/14 07:08:26;;;;;;;;;;;;;;;22.56;26.35;97380.81;5082630;28;1979;-75
2020/12/14 07:11:08;;;;;;;;;;;;;;;22.73;26.21;97375.66;5082498;28;784;-75
2020/12/14 07:13:33;;;;;;;;;;;;;;;22.21;27.00;97378.13;5064838;28;897;-75
2020/12/14 07:16:08;;;;;;;;;;;;;;;21.94;27.14;97375.09;5083293;28;748;-75
2020/12/14 07:18:34;;;;;;;;;;;;;;;21.57;27.51;97380.50;5082574;28;745;-75
2020/12/14 07:21:06;;;;;;;;;;;;;;;22.07;27.40;97370.94;5102463;28;1545;-75
2020/12/14 07:23:32;;;;;;;;;;;;;;;22.45;26.62;97380.44;5099468;28;1528;-75
2020/12/14 07:25:58;;;;;;;;;;;;;;;22.66;26.34;97392.97;5082187;28;810;-75
2020/12/14 07:28:36;;;;;;;;;;;;;;;22.64;26.32;97382.09;5064712;28;1971;-75
2020/12/14 07:31:20;;;;;;;;;;;;;;;22.31;26.55;97374.06;5083728;28;1472;-75
2020/12/14 07:33:57;;;;;;;;;;;;;;;21.82;27.28;97380.38;5065072;28;756;-75
2020/12/14 07:36:24;;;;;;;;;;;;;;;21.65;27.72;97393.13;5100598;28;1661;-75
2020/12/14 07:38:50;;;;;;;;;;;;;;;22.07;27.19;97375.78;5082149;28;1544;-75
2020/12/14 07:41:16;;;;;;;;;;;;;;;22.55;26.59;97390.56;5092925;28;1484;-75
2020/12/14 07:43:48;;;;;;;;;;;;;;;22.58;26.31;97389.63;5088636;28;1582;-74
2020/12/14 07:46:17;;;;;;;;;;;;;;;22.82;25.78;97387.81;5102636;28;638;-75
2020/12/14 07:48:42;;;;;;;;;;;;;;;22.76;25.73;97394.59;5117204;28;1913;-75
2020/12/14 07:51:07;;;;;;;;;;;;;;;20.89;26.18;97104.94;5105015;28;606;-77
2020/12/14 07:53:33;;;;;;;;;;;;;;;21.77;27.40;97385.84;5122996;28;709;-75
2020/12/14 07:56:02;;;;;;;;;;;;;;;21.87;27.39;97400.88;5122172;28;947;-75
2020/12/14 07:58:27;;;;;;;;;;;;;;;21.58;27.76;97404.72;5107804;28;1511;-75
2020/12/14 08:00:53;;;;;;;;;;;;;;;21.92;27.52;97405.94;5087773;28;1448;-74
2020/12/14 08:03:18;;;;;;;;;;;;;;;22.44;26.51;97407.22;5081592;28;702;-75
2020/12/14 08:05:45;;;;;;;;;;;;;;;22.61;26.31;97412.16;5099385;28;1709;-74
2020/12/14 08:08:11;;;;;;;;;;;;;;;22.79;25.92;97416.31;5081048;28;1971;-75
2020/12/14 08:10:38;;;;;;;;;;;;;;;22.38;26.38;97420.38;5081506;28;858;-75
2020/12/14 08:13:09;;;;;;;;;;;;;;;21.55;28.02;97414.13;5081418;28;842;-75
2020/12/14 08:15:34;;;;;;;;;;;;;;;21.68;27.45;97420.53;5064779;28;1618;-75
2020/12/14 08:18:01;;;;;;;;;;;;;;;21.95;27.25;97422.00;5067714;28;1123;-75
2020/12/14 08:20:27;;;;;;;;;;;;;;;22.43;26.51;97416.94;5101727;28;625;-75
2020/12/14 08:22:53;;;;;;;;;;;;;;;22.58;26.45;97412.31;5098219;28;645;-74
2020/12/14 08:25:22;;;;;;;;;;;;;;;22.63;26.14;97408.84;5081047;28;865;-75
2020/12/14 08:27:56;;;;;;;;;;;;;;;22.86;26.00;97411.16;5080841;28;1897;-75
2020/12/14 08:30:22;;;;;;;;;;;;;;;22.42;26.16;97404.81;5080941;28;881;-73
2020/12/14 08:33:06;;;;;;;;;;;;;;;21.61;27.67;97391.72;5080753;28;630;-74
2020/12/14 08:35:44;;;;;;;;;;;;;;;21.77;27.46;97388.69;5080924;28;681;-74
2020/12/14 08:38:14;;;;;;;;;;;;;;;21.80;27.59;97387.75;5080856;28;683;-75
2020/12/14 08:40:39;;;;;;;;;;;;;;;22.29;26.73;97389.97;5081005;28;989;-75
2020/12/14 08:43:11;;;;;;;;;;;;;;;22.56;26.29;97386.47;5080469;28;863;-75
2020/12/14 08:45:39;;;;;;;;;;;;;;;22.51;26.12;97389.91;5080956;28;1024;-75
2020/12/14 08:48:04;;;;;;;;;;;;;;;22.04;26.81;97379.56;5080799;28;1902;-75
2020/12/14 08:50:31;;;;;;;;;;;;;;;21.18;28.22;97385.47;5080901;28;694;-75
2020/12/14 08:53:02;;;;;;;;;;;;;;;21.77;27.74;97389.47;5095252;28;1392;-75
2020/12/14 08:55:35;;;;;;;;;;;;;;;22.23;26.83;97386.97;5100904;28;960;-75
2020/12/14 08:58:00;;;;;;;;;;;;;;;22.57;26.32;97388.03;5100712;28;892;-75
2020/12/14 09:00:25;;;;;;;;;;;;;;;22.61;26.42;97397.19;5100912;28;701;-76
2020/12/14 09:02:58;;;;;;;;;;;;;;;22.77;26.23;97399.78;5098906;28;1515;-75
2020/12/14 09:05:23;;;;;;;;;;;;;;;22.42;26.48;97409.72;5100809;28;606;-74
2020/12/14 09:07:49;;;;;;;;;;;;;;;21.86;27.13;97405.72;5100784;28;1901;-75
2020/12/14 09:10:15;;;;;;;;;;;;;;;21.62;27.45;97405.41;5100521;28;942;-75
2020/12/14 09:12:41;;;;;;;;;;;;;;;21.53;27.95;97394.78;5098733;28;1546;-75
2020/12/14 09:15:06;;;;;;;;;;;;;;;22.06;27.40;97400.50;5100750;28;905;-76
2020/12/14 09:17:31;;;;;;;;;;;;;;;22.48;26.72;97405.00;5090894;28;1563;-75
2020/12/14 09:19:57;;;;;;;;;;;;;;;22.91;25.95;97406.16;5081778;28;1499;-75
2020/12/14 09:22:25;;;;;;;;;;;;;;;22.66;26.39;97402.25;5081111;28;1484;-75
2020/12/14 09:24:50;;;;;;;;;;;;;;;22.44;26.82;97401.53;5080074;28;857;-75
2020/12/14 09:27:16;;;;;;;;;;;;;;;21.64;27.74;97411.38;5080067;28;904;-75
2020/12/14 09:29:42;;;;;;;;;;;;;;;21.68;27.69;97411.25;5080269;28;1906;-75
2020/12/14 09:32:09;;;;;;;;;;;;;;;21.43;28.53;97417.81;5082626;28;1512;-75
2020/12/14 09:34:34;;;;;;;;;;;;;;;21.95;27.43;97417.13;5100473;28;650;-75
2020/12/14 09:37:00;;;;;;;;;;;;;;;22.27;27.18;97409.47;5100579;28;664;-75
2020/12/14 09:39:26;;;;;;;;;;;;;;;22.56;26.42;97417.66;5100028;28;1027;-75
2020/12/14 09:41:51;;;;;;;;;;;;;;;22.85;26.02;97420.94;5073076;28;1595;-75
2020/12/14 09:44:17;;;;;;;;;;;;;;;21.65;27.45;97412.16;5091304;28;1548;-75
2020/12/14 09:46:43;;;;;;;;;;;;;;;21.31;28.23;97420.22;5066603;28;1556;-75
2020/12/14 09:49:08;;;;;;;;;;;;;;;21.72;27.67;97415.53;5080029;28;1905;-75
2020/12/14 09:51:34;;;;;;;;;;;;;;;21.94;27.61;97417.59;5092305;28;1488;-75
2020/12/14 09:54:00;;;;;;;;;;;;;;;22.44;26.61;97424.22;5099978;28;872;-75
2020/12/14 09:56:25;;;;;;;;;;;;;;;22.50;26.85;97423.16;5071643;28;1551;-75
2020/12/14 09:58:51;;;;;;;;;;;;;;;22.46;26.89;97422.50;5080033;28;833;-75
2020/12/14 10:01:16;;;;;;;;;;;;;;;22.59;26.34;97422.41;5082134;28;1727;-75
2020/12/14 10:03:42;;;;;;;;;;;;;;;21.80;27.68;97425.34;5079928;28;689;-75
2020/12/14 10:06:11;;;;;;;;;;;;;;;21.83;27.17;97421.59;5084189;28;1467;-75
2020/12/14 10:08:39;;;;;;;;;;;;;;;20.30;27.68;97190.16;5099761;28;1966;-75
2020/12/14 10:11:05;;;;;;;;;;;;;;;22.34;27.17;97421.34;5082833;28;967;-74
2020/12/14 10:13:31;;;;;;;;;;;;;;;22.42;26.64;97421.06;5082530;28;854;-76
2020/12/14 10:15:56;;;;;;;;;;;;;;;22.76;26.26;97418.06;5100311;28;657;-75
2020/12/14 10:18:22;;;;;;;;;;;;;;;22.65;26.59;97400.69;5097997;28;1601;-75
2020/12/14 10:20:47;;;;;;;;;;;;;;;22.58;26.38;97395.28;5100055;28;669;-75
2020/12/14 10:23:13;;;;;;;;;;;;;;;21.93;27.44;97385.66;5099731;28;1057;-75
2020/12/14 10:25:39;;;;;;;;;;;;;;;21.57;28.06;97377.69;5096116;28;1483;-75
2020/12/14 10:28:04;;;;;;;;;;;;;;;21.80;27.91;97365.88;5062154;28;1897;-75
2020/12/14 10:30:30;;;;;;;;;;;;;;;22.22;27.09;97357.00;5079766;28;614;-75
2020/12/14 10:32:55;;;;;;;;;;;;;;;22.39;27.05;97359.63;5079772;28;653;-75
2020/12/14 10:35:21;;;;;;;;;;;;;;;22.53;26.69;97370.38;5062254;28;662;-75
2020/12/14 10:37:47;;;;;;;;;;;;;;;22.93;26.43;97370.38;5097615;28;1531;-75
2020/12/14 10:40:12;;;;;;;;;;;;;;;22.62;26.49;97361.91;5099441;28;1133;-75
2020/12/14 10:42:38;;;;;;;;;;;;;;;22.02;27.35;97382.06;5099711;28;825;-76
2020/12/14 10:45:03;;;;;;;;;;;;;;;21.45;28.33;97387.00;5099901;28;744;-75
2020/12/14 10:47:28;;;;;;;;;;;;;;;21.63;28.03;97389.97;5098303;28;1535;-75
2020/12/14 10:49:54;;;;;;;;;;;;;;;22.09;27.54;97384.63;5088046;28;1968;-75
2020/12/14 10:52:20;;;;;;;;;;;;;;;22.47;26.69;97377.91;5062002;28;910;-76
2020/12/14 10:54:54;;;;;;;;;;;;;;;22.55;26.42;97373.56;5079138;28;839;-75
2020/12/14 10:57:20;;;;;;;;;;;;;;;22.64;26.67;97376.44;5083991;28;1485;-76
2020/12/14 10:59:45;;;;;;;;;;;;;;;22.74;26.36;97380.88;5083331;28;665;-75
2020/12/14 11:02:11;;;;;;;;;;;;;;;21.73;27.76;97383.16;5083086;28;606;-75
2020/12/14 11:04:37;;;;;;;;;;;;;;;21.72;27.67;97380.78;5065459;28;948;-75
2020/12/14 11:07:03;;;;;;;;;;;;;;;21.57;27.92;97389.00;5082644;28;894;-75
2020/12/14 11:09:28;;;;;;;;;;;;;;;21.98;27.37;97381.44;5083664;28;1972;-75
2020/12/14 11:11:53;;;;;;;;;;;;;;;22.47;26.94;97372.25;5082755;28;890;-75
2020/12/14 11:14:19;;;;;;;;;;;;;;;22.62;26.23;97384.59;5089308;28;1516;-74
2020/12/14 11:16:45;;;;;;;;;;;;;;;22.64;26.56;97384.94;5103240;28;649;-75
2020/12/14 11:19:10;;;;;;;;;;;;;;;22.75;25.91;97376.00;5100562;28;1574;-75
2020/12/14 11:21:36;;;;;;;;;;;;;;;22.62;26.17;97379.72;5090758;28;1535;-75
2020/12/14 11:24:01;;;;;;;;;;;;;;;21.76;27.60;97379.41;5082301;28;849;-75
2020/12/14 11:26:28;;;;;;;;;;;;;;;21.35;28.20;97374.84;5082531;28;917;-75
2020/12/14 11:28:53;;;;;;;;;;;;;;;21.66;27.95;97377.75;5083491;28;1969;-75
2020/12/14 11:31:19;;;;;;;;;;;;;;;21.58;28.07;97382.09;5082517;28;685;-75
2020/12/14 11:33:44;;;;;;;;;;;;;;;22.12;27.20;97386.56;5082843;28;626;-75
2020/12/14 11:36:10;;;;;;;;;;;;;;;22.51;26.39;97387.06;5082123;28;1036;-75
2020/12/14 11:38:35;;;;;;;;;;;;;;;22.76;26.23;97386.84;5064727;28;938;-75
2020/12/14 11:41:01;;;;;;;;;;;;;;;22.90;25.74;97398.88;5083222;28;1527;-76
2020/12/14 11:43:26;;;;;;;;;;;;;;;22.00;27.25;97396.69;5082095;28;638;-75
2020/12/14 11:45:52;;;;;;;;;;;;;;;21.72;27.73;97398.56;5082288;28;668;-75
2020/12/14 11:48:18;;;;;;;;;;;;;;;21.77;27.49;97400.00;5082399;28;1902;-75
2020/12/14 11:50:43;;;;;;;;;;;;;;;21.65;27.87;97401.63;5090073;28;2068;-75
2020/12/14 11:53:09;;;;;;;;;;;;;;;21.92;27.64;97408.78;5101982;28;897;-75
2020/12/14 11:55:35;;;;;;;;;;;;;;;22.31;26.96;97410.91;5090079;28;1566;-75
2020/12/14 11:58:01;;;;;;;;;;;;;;;22.39;26.63;97402.16;5081825;28;641;-75
2020/12/14 12:00:26;;;;;;;;;;;;;;;22.82;26.04;97416.19;5064514;28;650;-76
2020/12/14 12:02:51;;;;;;;;;;;;;;;22.41;26.38;97402.47;5082146;28;689;-75
2020/12/14 12:05:17;;;;;;;;;;;;;;;21.68;27.52;97409.22;5096291;28;923;-75
2020/12/14 12:07:42;;;;;;;;;;;;;;;21.48;28.05;97401.03;5089479;28;1570;-75
2020/12/14 12:10:08;;;;;;;;;;;;;;;22.07;27.47;97395.63;5081580;28;1973;-75
2020/12/14 12:12:33;;;;;;;;;;;;;;;22.54;26.69;97406.00;5081942;28;674;-75
2020/12/14 12:14:59;;;;;;;;;;;;;;;22.60;26.21;97398.47;5081457;28;686;-75
2020/12/14 12:17:24;;;;;;;;;;;;;;;22.53;26.38;97410.84;5081565;28;646;-75
2020/12/14 12:19:50;;;;;;;;;;;;;;;22.76;26.20;97401.03;5081095;28;993;-75
2020/12/14 12:22:15;;;;;;;;;;;;;;;22.66;26.05;97407.16;5095678;28;986;-75
2020/12/14 12:24:40;;;;;;;;;;;;;;;21.90;27.11;97402.75;5122041;28;836;-76
2020/12/14 12:27:06;;;;;;;;;;;;;;;21.70;27.42;97401.03;5122077;28;637;-76
2020/12/14 12:29:31;;;;;;;;;;;;;;;21.43;28.34;97407.28;5121950;28;1894;-75
2020/12/14 12:31:58;;;;;;;;;;;;;;;22.15;27.39;97405.47;5103231;28;1566;-76
2020/12/14 12:34:24;;;;;;;;;;;;;;;22.42;26.71;97415.38;5081293;28;1638;-75
2020/12/14 12:36:53;;;;;;;;;;;;;;;22.54;26.47;97411.69;5080877;28;855;-75
2020/12/14 12:39:18;;;;;;;;;;;;;;;22.91;26.00;97421.13;5081097;28;985;-76
2020/12/14 12:41:48;;;;;;;;;;;;;;;22.13;26.78;97415.72;5081125;28;650;-76
2020/12/14 12:44:13;;;;;;;;;;;;;;;21.65;27.62;97412.16;5064429;28;1580;-75
2020/12/14 12:46:39;;;;;;;;;;;;;;;21.72;27.72;97409.88;5081135;28;619;-75
2020/12/14 12:49:04;;;;;;;;;;;;;;;21.71;27.95;97413.16;5081576;28;1894;-71
2020/12/14 12:51:30;;;;;;;;;;;;;;;22.32;26.70;97412.50;5086510;28;1586;-78
2020/12/14 12:53:55;;;;;;;;;;;;;;;22.49;26.77;97420.78;5101188;28;1050;-78
2020/12/14 12:56:24;;;;;;;;;;;;;;;22.66;26.03;97413.59;5101078;28;622;-78
2020/12/14 12:58:50;;;;;;;;;;;;;;;22.71;26.15;97421.50;5100911;28;622;-75
2020/12/14 13:01:15;;;;;;;;;;;;;;;22.76;26.04;97426.56;5099177;28;1542;-75
2020/12/14 13:03:40;;;;;;;;;;;;;;;22.14;26.90;97429.41;5100705;28;919;-75
2020/12/14 13:06:06;;;;;;;;;;;;;;;21.22;28.06;97434.25;5100625;28;887;-76
2020/12/14 13:08:31;;;;;;;;;;;;;;;21.59;27.72;97438.22;5099371;28;1962;-75
2020/12/14 13:10:57;;;;;;;;;;;;;;;22.25;26.86;97435.44;5080739;28;1523;-75